sensor_id;sensor_type;location;lat;lon;timestamp;temperature;humidity
16128;DHT22;8168;49.036;7.690;2023-07-28T00:02:28;18.70;99.90
16128;DHT22;8168;49.036;7.690;2023-07-28T00:04:58;18.70;99.90
16128;DHT22;8168;49.036;7.690;2023-07-28T00:07:29;18.60;99.90
16128;DHT22;8168;49.036;7.690;2023-07-28T00:09:59;18.60;99.90
16128;DHT22;8168;49.036;7.690;2023-07-28T00:12:30;18.60;99.90
16128;DHT22;8168;49.036;7.690;2023-07-28T00:15:01;18.60;99.90
16128;DHT22;8168;49.036;7.690;2023-07-28T00:17:31;18.60;99.90
16128;DHT22;8168;49.036;7.690;2023-07-28T00:20:02;18.60;99.90
16128;DHT22;8168;49.036;7.690;2023-07-28T00:22:33;18.50;99.90
16128;DHT22;8168;49.036;7.690;2023-07-28T00:25:03;18.60;99.90
16128;DHT22;8168;49.036;7.690;2023-07-28T00:27:34;18.60;99.90
16128;DHT22;8168;49.036;7.690;2023-07-28T00:30:05;18.50;99.90
16128;DHT22;8168;49.036;7.690;2023-07-28T00:32:36;18.60;99.90
16128;DHT22;8168;49.036;7.690;2023-07-28T00:35:07;18.60;99.90
16128;DHT22;8168;49.036;7.690;2023-07-28T00:37:38;18.60;99.90
16128;DHT22;8168;49.036;7.690;2023-07-28T00:40:08;18.60;99.90
16128;DHT22;8168;49.036;7.690;2023-07-28T00:42:39;18.70;99.90
16128;DHT22;8168;49.036;7.690;2023-07-28T00:45:10;18.70;99.90
16128;DHT22;8168;49.036;7.690;2023-07-28T00:47:41;18.60;99.90
16128;DHT22;8168;49.036;7.690;2023-07-28T00:50:11;17.60;99.90
16128;DHT22;8168;49.036;7.690;2023-07-28T00:52:42;18.60;99.90
16128;DHT22;8168;49.036;7.690;2023-07-28T00:55:13;18.60;99.90
16128;DHT22;8168;49.036;7.690;2023-07-28T00:57:43;18.60;99.90
16128;DHT22;8168;49.036;7.690;2023-07-28T01:00:15;18.60;99.90
16128;DHT22;8168;49.036;7.690;2023-07-28T01:02:45;18.60;99.90
16128;DHT22;8168;49.036;7.690;2023-07-28T01:05:16;18.70;99.90
16128;DHT22;8168;49.036;7.690;2023-07-28T01:08:21;18.60;99.90
16128;DHT22;8168;49.036;7.690;2023-07-28T01:10:54;18.70;99.90
16128;DHT22;8168;49.036;7.690;2023-07-28T01:13:25;18.60;99.90
16128;DHT22;8168;49.036;7.690;2023-07-28T01:15:55;18.60;99.90
16128;DHT22;8168;49.036;7.690;2023-07-28T01:18:27;18.60;99.90
16128;DHT22;8168;49.036;7.690;2023-07-28T01:21:01;18.60;99.90
16128;DHT22;8168;49.036;7.690;2023-07-28T01:26:36;18.50;99.90
16128;DHT22;8168;49.036;7.690;2023-07-28T01:29:07;18.60;99.90
16128;DHT22;8168;49.036;7.690;2023-07-28T01:31:39;18.60;99.90
16128;DHT22;8168;49.036;7.690;2023-07-28T01:34:10;18.60;99.90
16128;DHT22;8168;49.036;7.690;2023-07-28T01:36:40;18.70;99.90
16128;DHT22;8168;49.036;7.690;2023-07-28T01:39:11;18.70;99.90
16128;DHT22;8168;49.036;7.690;2023-07-28T01:41:42;18.70;99.90
16128;DHT22;8168;49.036;7.690;2023-07-28T01:44:14;18.70;99.90
16128;DHT22;8168;49.036;7.690;2023-07-28T01:46:45;20.30;99.90
16128;DHT22;8168;49.036;7.690;2023-07-28T01:49:15;18.80;99.90
16128;DHT22;8168;49.036;7.690;2023-07-28T01:51:46;18.70;99.90
16128;DHT22;8168;49.036;7.690;2023-07-28T01:54:16;18.80;99.90
16128;DHT22;8168;49.036;7.690;2023-07-28T01:56:47;18.80;99.90
16128;DHT22;8168;49.036;7.690;2023-07-28T01:59:18;18.80;99.90
16128;DHT22;8168;49.036;7.690;2023-07-28T02:01:49;18.70;99.90
16128;DHT22;8168;49.036;7.690;2023-07-28T02:04:20;18.80;99.90
16128;DHT22;8168;49.036;7.690;2023-07-28T02:06:50;18.80;99.90
16128;DHT22;8168;49.036;7.690;2023-07-28T02:09:21;18.80;99.90
16128;DHT22;8168;49.036;7.690;2023-07-28T02:11:52;18.70;99.90
16128;DHT22;8168;49.036;7.690;2023-07-28T02:14:22;18.70;99.90
16128;DHT22;8168;49.036;7.690;2023-07-28T02:16:53;18.70;99.90
16128;DHT22;8168;49.036;7.690;2023-07-28T02:19:24;18.60;99.90
16128;DHT22;8168;49.036;7.690;2023-07-28T02:21:55;18.60;99.90
16128;DHT22;8168;49.036;7.690;2023-07-28T02:24:25;18.60;99.90
16128;DHT22;8168;49.036;7.690;2023-07-28T02:26:56;18.70;99.90
16128;DHT22;8168;49.036;7.690;2023-07-28T02:29:27;18.70;99.90
16128;DHT22;8168;49.036;7.690;2023-07-28T02:31:57;18.70;99.90
16128;DHT22;8168;49.036;7.690;2023-07-28T02:34:28;18.70;99.90
16128;DHT22;8168;49.036;7.690;2023-07-28T02:36:58;18.80;99.90
16128;DHT22;8168;49.036;7.690;2023-07-28T02:39:29;18.80;99.90
16128;DHT22;8168;49.036;7.690;2023-07-28T02:42:00;18.70;99.90
16128;DHT22;8168;49.036;7.690;2023-07-28T02:44:30;18.70;99.90
16128;DHT22;8168;49.036;7.690;2023-07-28T02:47:01;18.80;99.90
16128;DHT22;8168;49.036;7.690;2023-07-28T02:49:31;18.80;99.90
16128;DHT22;8168;49.036;7.690;2023-07-28T02:52:02;18.80;99.90
16128;DHT22;8168;49.036;7.690;2023-07-28T02:54:33;18.90;99.90
16128;DHT22;8168;49.036;7.690;2023-07-28T02:57:04;18.90;99.90
16128;DHT22;8168;49.036;7.690;2023-07-28T02:59:35;18.90;99.90
16128;DHT22;8168;49.036;7.690;2023-07-28T03:02:05;18.80;99.90
16128;DHT22;8168;49.036;7.690;2023-07-28T03:04:36;18.80;99.90
16128;DHT22;8168;49.036;7.690;2023-07-28T03:07:06;18.80;99.90
16128;DHT22;8168;49.036;7.690;2023-07-28T03:09:37;18.90;99.90
16128;DHT22;8168;49.036;7.690;2023-07-28T03:12:08;18.80;99.90
16128;DHT22;8168;49.036;7.690;2023-07-28T03:14:38;18.90;99.90
16128;DHT22;8168;49.036;7.690;2023-07-28T03:17:09;18.90;99.90
16128;DHT22;8168;49.036;7.690;2023-07-28T03:19:40;18.90;99.90
16128;DHT22;8168;49.036;7.690;2023-07-28T03:22:10;18.90;99.90
16128;DHT22;8168;49.036;7.690;2023-07-28T03:24:41;18.40;99.90
16128;DHT22;8168;49.036;7.690;2023-07-28T03:27:12;18.90;99.90
16128;DHT22;8168;49.036;7.690;2023-07-28T03:29:43;18.90;99.90
16128;DHT22;8168;49.036;7.690;2023-07-28T03:32:14;18.90;99.90
16128;DHT22;8168;49.036;7.690;2023-07-28T03:34:44;18.90;99.90
16128;DHT22;8168;49.036;7.690;2023-07-28T03:37:15;18.90;99.90
16128;DHT22;8168;49.036;7.690;2023-07-28T03:39:46;18.90;99.90
16128;DHT22;8168;49.036;7.690;2023-07-28T03:42:16;18.90;99.90
16128;DHT22;8168;49.036;7.690;2023-07-28T03:44:47;18.90;99.90
16128;DHT22;8168;49.036;7.690;2023-07-28T03:47:18;18.80;99.90
16128;DHT22;8168;49.036;7.690;2023-07-28T03:49:48;18.80;99.90
16128;DHT22;8168;49.036;7.690;2023-07-28T03:52:19;18.80;99.90
16128;DHT22;8168;49.036;7.690;2023-07-28T03:54:49;18.80;99.90
16128;DHT22;8168;49.036;7.690;2023-07-28T03:57:20;18.80;99.90
16128;DHT22;8168;49.036;7.690;2023-07-28T03:59:50;18.80;99.90
16128;DHT22;8168;49.036;7.690;2023-07-28T04:02:21;18.70;99.90
16128;DHT22;8168;49.036;7.690;2023-07-28T04:04:55;18.70;99.90
16128;DHT22;8168;49.036;7.690;2023-07-28T04:07:26;18.70;99.90
16128;DHT22;8168;49.036;7.690;2023-07-28T04:09:57;18.70;99.90
16128;DHT22;8168;49.036;7.690;2023-07-28T04:12:27;18.70;99.90
16128;DHT22;8168;49.036;7.690;2023-07-28T04:14:58;18.70;99.90
16128;DHT22;8168;49.036;7.690;2023-07-28T04:17:28;18.70;99.90
16128;DHT22;8168;49.036;7.690;2023-07-28T04:19:59;18.70;99.90
16128;DHT22;8168;49.036;7.690;2023-07-28T04:22:29;18.70;99.90
16128;DHT22;8168;49.036;7.690;2023-07-28T04:25:00;18.70;99.90
16128;DHT22;8168;49.036;7.690;2023-07-28T04:27:31;18.70;99.90
16128;DHT22;8168;49.036;7.690;2023-07-28T04:30:01;18.70;99.90
16128;DHT22;8168;49.036;7.690;2023-07-28T04:32:32;18.70;99.90
16128;DHT22;8168;49.036;7.690;2023-07-28T04:35:03;18.60;99.90
16128;DHT22;8168;49.036;7.690;2023-07-28T04:37:33;18.60;99.90
16128;DHT22;8168;49.036;7.690;2023-07-28T04:40:04;18.60;99.90
16128;DHT22;8168;49.036;7.690;2023-07-28T04:42:35;18.60;99.90
16128;DHT22;8168;49.036;7.690;2023-07-28T04:45:07;18.60;99.90
16128;DHT22;8168;49.036;7.690;2023-07-28T04:47:37;18.50;99.90
16128;DHT22;8168;49.036;7.690;2023-07-28T04:50:08;18.50;99.90
16128;DHT22;8168;49.036;7.690;2023-07-28T04:52:39;18.60;99.90
16128;DHT22;8168;49.036;7.690;2023-07-28T04:55:09;18.60;99.90
16128;DHT22;8168;49.036;7.690;2023-07-28T04:57:40;18.60;99.90
16128;DHT22;8168;49.036;7.690;2023-07-28T05:00:11;18.60;99.90
16128;DHT22;8168;49.036;7.690;2023-07-28T05:02:42;18.60;99.90
16128;DHT22;8168;49.036;7.690;2023-07-28T05:05:12;18.60;99.90
16128;DHT22;8168;49.036;7.690;2023-07-28T05:07:43;18.60;99.90
16128;DHT22;8168;49.036;7.690;2023-07-28T05:10:13;18.60;99.90
16128;DHT22;8168;49.036;7.690;2023-07-28T05:12:44;18.60;99.90
16128;DHT22;8168;49.036;7.690;2023-07-28T05:15:15;18.50;99.90
16128;DHT22;8168;49.036;7.690;2023-07-28T05:17:46;18.60;99.90
16128;DHT22;8168;49.036;7.690;2023-07-28T05:20:16;18.60;99.90
16128;DHT22;8168;49.036;7.690;2023-07-28T05:22:47;18.60;99.90
16128;DHT22;8168;49.036;7.690;2023-07-28T05:25:18;18.60;99.90
16128;DHT22;8168;49.036;7.690;2023-07-28T05:27:48;18.60;99.90
16128;DHT22;8168;49.036;7.690;2023-07-28T05:30:19;18.60;99.90
16128;DHT22;8168;49.036;7.690;2023-07-28T05:32:50;18.60;99.90
16128;DHT22;8168;49.036;7.690;2023-07-28T05:35:21;18.60;99.90
16128;DHT22;8168;49.036;7.690;2023-07-28T05:37:51;18.60;99.90
16128;DHT22;8168;49.036;7.690;2023-07-28T05:40:22;18.60;99.90
16128;DHT22;8168;49.036;7.690;2023-07-28T05:42:53;18.60;99.90
16128;DHT22;8168;49.036;7.690;2023-07-28T05:45:23;18.60;99.90
16128;DHT22;8168;49.036;7.690;2023-07-28T05:47:54;18.60;99.90
16128;DHT22;8168;49.036;7.690;2023-07-28T05:50:25;18.70;99.90
16128;DHT22;8168;49.036;7.690;2023-07-28T05:52:55;18.60;99.90
16128;DHT22;8168;49.036;7.690;2023-07-28T05:55:26;18.60;99.90
16128;DHT22;8168;49.036;7.690;2023-07-28T05:57:56;18.60;99.90
16128;DHT22;8168;49.036;7.690;2023-07-28T06:00:27;18.60;99.90
16128;DHT22;8168;49.036;7.690;2023-07-28T06:02:58;18.60;99.90
16128;DHT22;8168;49.036;7.690;2023-07-28T06:05:29;18.60;99.90
16128;DHT22;8168;49.036;7.690;2023-07-28T06:07:59;18.70;99.90
16128;DHT22;8168;49.036;7.690;2023-07-28T06:10:30;18.70;99.90
16128;DHT22;8168;49.036;7.690;2023-07-28T06:13:01;18.70;99.90
16128;DHT22;8168;49.036;7.690;2023-07-28T06:15:31;18.70;99.90
16128;DHT22;8168;49.036;7.690;2023-07-28T06:18:05;18.70;99.90
16128;DHT22;8168;49.036;7.690;2023-07-28T06:20:35;18.70;99.90
16128;DHT22;8168;49.036;7.690;2023-07-28T06:23:06;18.70;99.90
16128;DHT22;8168;49.036;7.690;2023-07-28T06:25:37;18.70;99.90
16128;DHT22;8168;49.036;7.690;2023-07-28T06:28:13;18.70;99.90
16128;DHT22;8168;49.036;7.690;2023-07-28T06:30:45;18.70;99.90
16128;DHT22;8168;49.036;7.690;2023-07-28T06:33:15;18.70;99.90
16128;DHT22;8168;49.036;7.690;2023-07-28T06:35:46;18.70;99.90
16128;DHT22;8168;49.036;7.690;2023-07-28T06:38:17;18.70;99.90
16128;DHT22;8168;49.036;7.690;2023-07-28T06:40:48;18.80;99.90
16128;DHT22;8168;49.036;7.690;2023-07-28T06:43:18;18.80;99.90
16128;DHT22;8168;49.036;7.690;2023-07-28T06:45:53;18.80;99.90
16128;DHT22;8168;49.036;7.690;2023-07-28T06:48:24;18.80;99.90
16128;DHT22;8168;49.036;7.690;2023-07-28T06:50:55;18.80;99.90
16128;DHT22;8168;49.036;7.690;2023-07-28T06:53:25;18.80;99.90
16128;DHT22;8168;49.036;7.690;2023-07-28T06:55:56;18.90;99.90
16128;DHT22;8168;49.036;7.690;2023-07-28T06:58:26;18.90;99.90
16128;DHT22;8168;49.036;7.690;2023-07-28T07:00:57;18.90;99.90
16128;DHT22;8168;49.036;7.690;2023-07-28T07:03:28;18.90;99.90
16128;DHT22;8168;49.036;7.690;2023-07-28T07:05:59;18.90;99.90
16128;DHT22;8168;49.036;7.690;2023-07-28T07:08:29;18.90;99.90
16128;DHT22;8168;49.036;7.690;2023-07-28T07:11:00;18.90;99.90
16128;DHT22;8168;49.036;7.690;2023-07-28T07:13:31;18.90;99.90
16128;DHT22;8168;49.036;7.690;2023-07-28T07:16:02;18.90;99.90
16128;DHT22;8168;49.036;7.690;2023-07-28T07:18:33;19.00;99.90
16128;DHT22;8168;49.036;7.690;2023-07-28T07:21:03;19.00;99.90
16128;DHT22;8168;49.036;7.690;2023-07-28T07:23:34;19.00;99.90
16128;DHT22;8168;49.036;7.690;2023-07-28T07:26:04;19.10;99.90
16128;DHT22;8168;49.036;7.690;2023-07-28T07:28:35;19.10;99.90
16128;DHT22;8168;49.036;7.690;2023-07-28T07:31:12;19.10;99.90
16128;DHT22;8168;49.036;7.690;2023-07-28T07:33:44;19.20;99.90
16128;DHT22;8168;49.036;7.690;2023-07-28T07:36:18;19.20;99.90
16128;DHT22;8168;49.036;7.690;2023-07-28T07:38:49;19.20;99.90
16128;DHT22;8168;49.036;7.690;2023-07-28T07:41:21;19.30;99.90
16128;DHT22;8168;49.036;7.690;2023-07-28T07:43:53;19.30;99.90
16128;DHT22;8168;49.036;7.690;2023-07-28T07:46:24;19.40;99.90
16128;DHT22;8168;49.036;7.690;2023-07-28T07:48:55;19.40;99.90
16128;DHT22;8168;49.036;7.690;2023-07-28T07:51:25;19.40;99.90
16128;DHT22;8168;49.036;7.690;2023-07-28T07:53:56;19.40;99.90
16128;DHT22;8168;49.036;7.690;2023-07-28T07:56:27;19.50;99.90
16128;DHT22;8168;49.036;7.690;2023-07-28T07:58:58;19.50;99.90
16128;DHT22;8168;49.036;7.690;2023-07-28T08:01:28;19.50;99.90
16128;DHT22;8168;49.036;7.690;2023-07-28T08:03:59;19.40;99.90
16128;DHT22;8168;49.036;7.690;2023-07-28T08:06:30;19.50;99.90
16128;DHT22;8168;49.036;7.690;2023-07-28T08:09:00;19.50;99.90
16128;DHT22;8168;49.036;7.690;2023-07-28T08:11:31;19.50;99.90
16128;DHT22;8168;49.036;7.690;2023-07-28T08:14:02;19.50;99.90
16128;DHT22;8168;49.036;7.690;2023-07-28T08:16:32;19.50;99.90
16128;DHT22;8168;49.036;7.690;2023-07-28T08:19:03;19.60;99.90
16128;DHT22;8168;49.036;7.690;2023-07-28T08:21:34;19.60;99.90
16128;DHT22;8168;49.036;7.690;2023-07-28T08:24:06;19.60;99.90
16128;DHT22;8168;49.036;7.690;2023-07-28T08:26:37;19.60;99.90
16128;DHT22;8168;49.036;7.690;2023-07-28T08:29:08;19.60;99.90
16128;DHT22;8168;49.036;7.690;2023-07-28T08:31:39;19.60;99.90
16128;DHT22;8168;49.036;7.690;2023-07-28T08:34:09;19.60;99.90
16128;DHT22;8168;49.036;7.690;2023-07-28T08:36:40;19.70;99.90
16128;DHT22;8168;49.036;7.690;2023-07-28T08:39:11;19.70;99.90
16128;DHT22;8168;49.036;7.690;2023-07-28T08:41:42;19.80;99.90
16128;DHT22;8168;49.036;7.690;2023-07-28T08:44:13;19.80;99.90
16128;DHT22;8168;49.036;7.690;2023-07-28T08:46:44;19.80;99.90
16128;DHT22;8168;49.036;7.690;2023-07-28T08:49:14;19.80;99.90
16128;DHT22;8168;49.036;7.690;2023-07-28T08:51:49;19.80;99.90
16128;DHT22;8168;49.036;7.690;2023-07-28T08:54:20;19.80;99.90
16128;DHT22;8168;49.036;7.690;2023-07-28T08:56:51;19.70;99.90
16128;DHT22;8168;49.036;7.690;2023-07-28T08:59:26;19.70;99.90
16128;DHT22;8168;49.036;7.690;2023-07-28T09:01:58;19.70;99.90
16128;DHT22;8168;49.036;7.690;2023-07-28T09:04:29;19.70;99.90
16128;DHT22;8168;49.036;7.690;2023-07-28T09:07:04;19.70;99.90
16128;DHT22;8168;49.036;7.690;2023-07-28T09:09:35;19.70;99.90
16128;DHT22;8168;49.036;7.690;2023-07-28T09:12:07;19.70;99.90
16128;DHT22;8168;49.036;7.690;2023-07-28T09:14:39;19.70;99.90
16128;DHT22;8168;49.036;7.690;2023-07-28T09:17:10;19.60;99.90
16128;DHT22;8168;49.036;7.690;2023-07-28T09:22:22;19.50;99.90
16128;DHT22;8168;49.036;7.690;2023-07-28T09:24:53;19.50;99.90
16128;DHT22;8168;49.036;7.690;2023-07-28T09:27:25;19.50;99.90
16128;DHT22;8168;49.036;7.690;2023-07-28T09:29:56;19.50;99.90
16128;DHT22;8168;49.036;7.690;2023-07-28T09:32:32;19.60;99.90
16128;DHT22;8168;49.036;7.690;2023-07-28T09:35:13;19.60;99.90
16128;DHT22;8168;49.036;7.690;2023-07-28T09:37:45;19.50;99.90
16128;DHT22;8168;49.036;7.690;2023-07-28T09:40:20;19.50;99.90
16128;DHT22;8168;49.036;7.690;2023-07-28T09:42:51;19.50;99.90
16128;DHT22;8168;49.036;7.690;2023-07-28T09:45:24;19.60;99.90
16128;DHT22;8168;49.036;7.690;2023-07-28T09:47:57;19.60;99.90
16128;DHT22;8168;49.036;7.690;2023-07-28T09:50:32;19.60;99.90
16128;DHT22;8168;49.036;7.690;2023-07-28T09:53:03;19.70;99.90
16128;DHT22;8168;49.036;7.690;2023-07-28T09:55:35;19.70;99.90
16128;DHT22;8168;49.036;7.690;2023-07-28T09:58:09;19.80;99.90
16128;DHT22;8168;49.036;7.690;2023-07-28T10:00:40;19.80;99.90
16128;DHT22;8168;49.036;7.690;2023-07-28T10:03:11;19.80;99.90
16128;DHT22;8168;49.036;7.690;2023-07-28T10:05:44;19.80;99.90
16128;DHT22;8168;49.036;7.690;2023-07-28T10:08:15;19.80;99.90
16128;DHT22;8168;49.036;7.690;2023-07-28T10:10:47;19.90;99.90
16128;DHT22;8168;49.036;7.690;2023-07-28T10:13:21;19.80;99.90
16128;DHT22;8168;49.036;7.690;2023-07-28T10:15:52;19.80;99.90
16128;DHT22;8168;49.036;7.690;2023-07-28T10:18:26;19.80;99.90
16128;DHT22;8168;49.036;7.690;2023-07-28T10:21:08;19.90;99.90
16128;DHT22;8168;49.036;7.690;2023-07-28T10:23:39;19.80;99.90
16128;DHT22;8168;49.036;7.690;2023-07-28T10:26:10;19.70;99.90
16128;DHT22;8168;49.036;7.690;2023-07-28T10:28:40;19.80;99.90
16128;DHT22;8168;49.036;7.690;2023-07-28T10:31:11;19.80;99.90
16128;DHT22;8168;49.036;7.690;2023-07-28T10:33:45;19.80;99.90
16128;DHT22;8168;49.036;7.690;2023-07-28T10:39:22;19.80;99.90
16128;DHT22;8168;49.036;7.690;2023-07-28T10:42:09;19.80;99.90
16128;DHT22;8168;49.036;7.690;2023-07-28T10:44:40;19.80;99.90
16128;DHT22;8168;49.036;7.690;2023-07-28T10:47:11;19.80;99.90
16128;DHT22;8168;49.036;7.690;2023-07-28T10:49:43;19.90;99.90
16128;DHT22;8168;49.036;7.690;2023-07-28T10:52:17;19.90;99.90
16128;DHT22;8168;49.036;7.690;2023-07-28T10:54:47;19.80;99.90
16128;DHT22;8168;49.036;7.690;2023-07-28T10:57:18;19.80;99.90
16128;DHT22;8168;49.036;7.690;2023-07-28T10:59:50;19.80;99.90
16128;DHT22;8168;49.036;7.690;2023-07-28T11:02:21;19.70;99.90
16128;DHT22;8168;49.036;7.690;2023-07-28T11:04:52;19.80;99.90
16128;DHT22;8168;49.036;7.690;2023-07-28T11:07:23;19.80;99.90
16128;DHT22;8168;49.036;7.690;2023-07-28T11:09:54;19.90;99.90
16128;DHT22;8168;49.036;7.690;2023-07-28T11:12:25;19.90;99.90
16128;DHT22;8168;49.036;7.690;2023-07-28T11:14:56;19.90;99.90
16128;DHT22;8168;49.036;7.690;2023-07-28T11:17:27;20.00;99.90
16128;DHT22;8168;49.036;7.690;2023-07-28T11:19:57;20.00;99.90
16128;DHT22;8168;49.036;7.690;2023-07-28T11:22:28;20.00;99.90
16128;DHT22;8168;49.036;7.690;2023-07-28T11:24:59;20.00;99.90
16128;DHT22;8168;49.036;7.690;2023-07-28T11:27:29;20.00;99.90
16128;DHT22;8168;49.036;7.690;2023-07-28T11:30:01;20.00;99.90
16128;DHT22;8168;49.036;7.690;2023-07-28T11:32:37;20.00;99.90
16128;DHT22;8168;49.036;7.690;2023-07-28T11:35:11;20.10;99.90
16128;DHT22;8168;49.036;7.690;2023-07-28T11:37:46;20.10;99.90
16128;DHT22;8168;49.036;7.690;2023-07-28T11:40:20;20.10;99.90
16128;DHT22;8168;49.036;7.690;2023-07-28T11:42:54;20.10;99.90
16128;DHT22;8168;49.036;7.690;2023-07-28T11:45:25;20.10;99.90
16128;DHT22;8168;49.036;7.690;2023-07-28T11:50:29;20.10;99.90
16128;DHT22;8168;49.036;7.690;2023-07-28T11:53:01;20.00;99.90
16128;DHT22;8168;49.036;7.690;2023-07-28T11:55:34;19.90;99.90
16128;DHT22;8168;49.036;7.690;2023-07-28T11:58:05;19.90;99.90
16128;DHT22;8168;49.036;7.690;2023-07-28T12:00:40;19.90;99.90
16128;DHT22;8168;49.036;7.690;2023-07-28T12:03:15;19.90;99.90
16128;DHT22;8168;49.036;7.690;2023-07-28T12:06:04;19.80;99.90
16128;DHT22;8168;49.036;7.690;2023-07-28T12:08:37;19.80;99.90
16128;DHT22;8168;49.036;7.690;2023-07-28T12:11:13;19.70;99.90
16128;DHT22;8168;49.036;7.690;2023-07-28T12:13:48;19.70;99.90
16128;DHT22;8168;49.036;7.690;2023-07-28T12:16:38;19.70;99.90
16128;DHT22;8168;49.036;7.690;2023-07-28T12:19:09;19.70;99.90
16128;DHT22;8168;49.036;7.690;2023-07-28T12:21:41;19.70;99.90
16128;DHT22;8168;49.036;7.690;2023-07-28T12:24:12;19.70;99.90
16128;DHT22;8168;49.036;7.690;2023-07-28T12:26:45;19.70;99.90
16128;DHT22;8168;49.036;7.690;2023-07-28T12:29:16;19.60;99.90
16128;DHT22;8168;49.036;7.690;2023-07-28T12:31:47;19.70;99.90
16128;DHT22;8168;49.036;7.690;2023-07-28T12:34:17;19.60;99.90
16128;DHT22;8168;49.036;7.690;2023-07-28T12:36:48;19.70;99.90
16128;DHT22;8168;49.036;7.690;2023-07-28T12:39:21;19.70;99.90
16128;DHT22;8168;49.036;7.690;2023-07-28T12:41:52;19.70;99.90
16128;DHT22;8168;49.036;7.690;2023-07-28T12:44:22;19.70;99.90
16128;DHT22;8168;49.036;7.690;2023-07-28T12:46:53;19.70;99.90
16128;DHT22;8168;49.036;7.690;2023-07-28T12:49:24;19.70;99.90
16128;DHT22;8168;49.036;7.690;2023-07-28T12:51:58;19.80;99.90
16128;DHT22;8168;49.036;7.690;2023-07-28T12:54:29;19.70;99.90
16128;DHT22;8168;49.036;7.690;2023-07-28T12:56:59;19.60;99.90
16128;DHT22;8168;49.036;7.690;2023-07-28T12:59:30;19.60;99.90
16128;DHT22;8168;49.036;7.690;2023-07-28T13:02:01;19.60;99.90
16128;DHT22;8168;49.036;7.690;2023-07-28T13:04:31;19.60;99.90
16128;DHT22;8168;49.036;7.690;2023-07-28T13:07:02;19.60;99.90
16128;DHT22;8168;49.036;7.690;2023-07-28T13:09:32;19.70;99.90
16128;DHT22;8168;49.036;7.690;2023-07-28T13:12:03;19.70;99.90
16128;DHT22;8168;49.036;7.690;2023-07-28T13:14:34;19.80;99.90
16128;DHT22;8168;49.036;7.690;2023-07-28T13:17:05;19.80;99.90
16128;DHT22;8168;49.036;7.690;2023-07-28T13:19:36;19.80;99.90
16128;DHT22;8168;49.036;7.690;2023-07-28T13:22:07;19.80;99.90
16128;DHT22;8168;49.036;7.690;2023-07-28T13:24:37;19.80;99.90
16128;DHT22;8168;49.036;7.690;2023-07-28T13:27:08;19.70;99.90
16128;DHT22;8168;49.036;7.690;2023-07-28T13:29:39;19.80;99.90
16128;DHT22;8168;49.036;7.690;2023-07-28T13:32:18;19.80;99.90
16128;DHT22;8168;49.036;7.690;2023-07-28T13:34:49;19.80;99.90
16128;DHT22;8168;49.036;7.690;2023-07-28T13:37:19;19.80;99.90
16128;DHT22;8168;49.036;7.690;2023-07-28T13:39:50;19.80;99.90
16128;DHT22;8168;49.036;7.690;2023-07-28T13:42:22;19.80;99.90
16128;DHT22;8168;49.036;7.690;2023-07-28T13:44:52;19.80;99.90
16128;DHT22;8168;49.036;7.690;2023-07-28T13:47:23;19.80;99.90
16128;DHT22;8168;49.036;7.690;2023-07-28T13:49:54;19.80;99.90
16128;DHT22;8168;49.036;7.690;2023-07-28T13:52:24;19.80;99.90
16128;DHT22;8168;49.036;7.690;2023-07-28T13:54:55;19.80;99.90
16128;DHT22;8168;49.036;7.690;2023-07-28T13:57:26;19.80;99.90
16128;DHT22;8168;49.036;7.690;2023-07-28T13:59:56;19.80;99.90
16128;DHT22;8168;49.036;7.690;2023-07-28T14:02:27;19.80;99.90
16128;DHT22;8168;49.036;7.690;2023-07-28T14:09:05;19.80;99.90
16128;DHT22;8168;49.036;7.690;2023-07-28T14:11:36;19.80;99.90
16128;DHT22;8168;49.036;7.690;2023-07-28T14:14:06;19.70;99.90
16128;DHT22;8168;49.036;7.690;2023-07-28T14:16:38;19.80;99.90
16128;DHT22;8168;49.036;7.690;2023-07-28T14:19:08;19.70;99.90
16128;DHT22;8168;49.036;7.690;2023-07-28T14:21:39;19.70;99.90
16128;DHT22;8168;49.036;7.690;2023-07-28T14:24:10;19.70;99.90
16128;DHT22;8168;49.036;7.690;2023-07-28T14:26:41;19.80;99.90
16128;DHT22;8168;49.036;7.690;2023-07-28T14:29:11;19.80;99.90
16128;DHT22;8168;49.036;7.690;2023-07-28T14:31:42;19.80;99.90
16128;DHT22;8168;49.036;7.690;2023-07-28T14:34:13;19.80;99.90
16128;DHT22;8168;49.036;7.690;2023-07-28T14:36:43;19.90;99.90
16128;DHT22;8168;49.036;7.690;2023-07-28T14:39:14;19.90;99.90
16128;DHT22;8168;49.036;7.690;2023-07-28T14:41:44;19.90;99.90
16128;DHT22;8168;49.036;7.690;2023-07-28T14:44:15;20.00;99.90
16128;DHT22;8168;49.036;7.690;2023-07-28T14:46:46;20.00;99.90
16128;DHT22;8168;49.036;7.690;2023-07-28T14:49:17;20.00;99.90
16128;DHT22;8168;49.036;7.690;2023-07-28T14:51:47;20.00;99.90
16128;DHT22;8168;49.036;7.690;2023-07-28T14:54:18;20.00;99.90
16128;DHT22;8168;49.036;7.690;2023-07-28T14:56:49;20.00;99.90
16128;DHT22;8168;49.036;7.690;2023-07-28T14:59:19;20.00;99.90
16128;DHT22;8168;49.036;7.690;2023-07-28T15:01:50;20.00;99.90
16128;DHT22;8168;49.036;7.690;2023-07-28T15:04:21;20.00;99.90
16128;DHT22;8168;49.036;7.690;2023-07-28T15:06:51;20.10;99.90
16128;DHT22;8168;49.036;7.690;2023-07-28T15:09:22;20.00;99.90
16128;DHT22;8168;49.036;7.690;2023-07-28T15:11:54;20.00;99.90
16128;DHT22;8168;49.036;7.690;2023-07-28T15:14:24;20.10;99.90
16128;DHT22;8168;49.036;7.690;2023-07-28T15:16:55;20.10;99.90
16128;DHT22;8168;49.036;7.690;2023-07-28T15:19:28;20.10;99.90
16128;DHT22;8168;49.036;7.690;2023-07-28T15:21:59;20.10;99.90
16128;DHT22;8168;49.036;7.690;2023-07-28T15:24:29;20.10;99.90
16128;DHT22;8168;49.036;7.690;2023-07-28T15:27:00;20.10;99.90
16128;DHT22;8168;49.036;7.690;2023-07-28T15:29:30;20.20;99.90
16128;DHT22;8168;49.036;7.690;2023-07-28T15:32:01;20.20;99.90
16128;DHT22;8168;49.036;7.690;2023-07-28T15:34:32;20.20;99.90
16128;DHT22;8168;49.036;7.690;2023-07-28T15:37:04;20.20;99.90
16128;DHT22;8168;49.036;7.690;2023-07-28T15:39:35;20.30;99.90
16128;DHT22;8168;49.036;7.690;2023-07-28T15:42:06;20.30;99.90
16128;DHT22;8168;49.036;7.690;2023-07-28T15:44:36;20.30;99.90
16128;DHT22;8168;49.036;7.690;2023-07-28T15:47:07;20.30;99.90
16128;DHT22;8168;49.036;7.690;2023-07-28T15:49:38;20.40;99.90
16128;DHT22;8168;49.036;7.690;2023-07-28T15:52:08;20.40;99.90
16128;DHT22;8168;49.036;7.690;2023-07-28T15:54:39;20.40;99.90
16128;DHT22;8168;49.036;7.690;2023-07-28T15:57:10;20.40;99.90
16128;DHT22;8168;49.036;7.690;2023-07-28T15:59:40;20.50;99.90
16128;DHT22;8168;49.036;7.690;2023-07-28T16:02:11;20.50;99.90
16128;DHT22;8168;49.036;7.690;2023-07-28T16:04:42;20.50;99.90
16128;DHT22;8168;49.036;7.690;2023-07-28T16:07:13;20.50;99.90
16128;DHT22;8168;49.036;7.690;2023-07-28T16:09:44;20.60;99.90
16128;DHT22;8168;49.036;7.690;2023-07-28T16:12:14;20.60;99.90
16128;DHT22;8168;49.036;7.690;2023-07-28T16:14:45;20.60;99.90
16128;DHT22;8168;49.036;7.690;2023-07-28T16:17:15;20.60;99.90
16128;DHT22;8168;49.036;7.690;2023-07-28T16:19:46;20.60;99.90
16128;DHT22;8168;49.036;7.690;2023-07-28T16:22:17;20.60;99.90
16128;DHT22;8168;49.036;7.690;2023-07-28T16:24:48;20.60;99.90
16128;DHT22;8168;49.036;7.690;2023-07-28T16:27:18;20.60;99.90